Terminal Aerodrome Forecast
Issued by NWS

Home | Current Version | Previous Version | Graphics & Text | Print | Product List | Glossary On
Versions: 1 2 3 4 5 6 7 8 9 10 11 12 13 14
000
FTUS43 KBIS 270523
TAFMOT
TAF
KMOT 270523Z 2706/2806 16009KT P6SM FEW120 FEW250 WS020/19040KT
     FM271000 17010KT P6SM FEW130 SCT200 WS020/20050KT
     FM271400 17012G20KT P6SM SCT120 BKN200
     FM280100 19007KT P6SM TSRA OVC090CB
     FM280300 29015KT P6SM SHRA VCTS SCT025 OVC080CB=

USA.gov is the U.S. government's official web portal to all federal, state and local government web resources and services.